Time;durP1;ratioP1;P1;durP2;ratioP2;P2;SDS_P1;SDS_P2;PMS_P1;PMS_P2;Temp;Humidity;BMP_temperature;BMP_pressure;BME280_temperature;BME280_humidity;BME280_pressure;Samples;Min_cycle;Max_cycle;Signal;HPM_P1;HPM_P2
2022/06/20 00:04:44;;;;;;;3.53;1.30;;;;;;;;;;20908492;28;20227;-74
2022/06/20 00:14:48;;;;;;;1.40;0.90;;;28.10;94.40;;;;;;20907538;28;20221;-74
2022/06/20 00:24:51;;;;;;;3.88;1.27;;;;;;;;;;20906881;28;20209;-74
2022/06/20 00:34:52;;;;;;;3.00;0.98;;;;;;;;;;20907554;28;20275;-74
2022/06/20 00:44:59;;;;;;;2.50;1.23;;;;;;;;;;20907284;28;20190;-74
2022/06/20 00:55:24;;;;;;;3.67;1.05;;;27.60;88.80;;;;;;20904549;28;20244;-73
2022/06/20 01:05:45;;;;;;;3.05;1.00;;;;;;;;;;20907972;28;20579;-74
2022/06/20 01:16:24;;;;;;;4.45;1.25;;;;;;;;;;20901966;28;20279;-74
2022/06/20 01:27:07;;;;;;;2.33;1.00;;;;;;;;;;20903160;28;20255;-73
2022/06/20 01:37:29;;;;;;;2.70;1.17;;;27.30;96.70;;;;;;20903641;28;20282;-74
2022/06/20 01:47:49;;;;;;;2.83;1.00;;;;;;;;;;20916667;28;20213;-74
2022/06/20 01:58:29;;;;;;;2.65;1.10;;;;;;;;;;20910184;28;20255;-74
2022/06/20 02:08:51;;;;;;;2.08;1.08;;;;;;;;;;20911624;28;20266;-74
2022/06/20 02:19:16;;;;;;;4.07;1.00;;;25.30;99.90;;;;;;20924977;28;20254;-73
2022/06/20 02:29:36;;;;;;;2.08;0.90;;;;;;;;;;20926354;28;20592;-73
2022/06/20 02:40:00;;;;;;;1.98;1.13;;;24.90;92.80;;;;;;20904723;28;20755;-72
2022/06/20 02:50:22;;;;;;;3.53;1.23;;;;;;;;;;20944781;28;20212;-73
2022/06/20 03:00:49;;;;;;;2.55;0.60;;;25.40;98.50;;;;;;20966544;28;20257;-73
2022/06/20 03:11:11;;;;;;;1.88;0.80;;;26.00;97.60;;;;;;20995528;28;20213;-73
2022/06/20 03:21:36;;;;;;;2.10;0.75;;;;;;;;;;20961392;28;20225;-73
2022/06/20 03:31:57;;;;;;;2.60;0.73;;;;;;;;;;20917995;28;20277;-73
2022/06/20 03:42:17;;;;;;;2.13;0.70;;;;;;;;;;20960613;22;20290;-71
2022/06/20 03:52:43;;;;;;;1.95;0.82;;;26.10;96.70;;;;;;20881295;28;20287;-70
2022/06/20 04:03:14;;;;;;;1.98;0.85;;;26.10;97.20;;;;;;20903209;28;20208;-72
2022/06/20 04:13:40;;;;;;;0.93;0.50;;;;;;;;;;20886733;28;20212;-72
2022/06/20 04:24:13;;;;;;;2.78;0.60;;;;;;;;;;20886453;28;20760;-73
2022/06/20 04:34:58;;;;;;;3.10;0.68;;;26.20;97.30;;;;;;20893936;28;20238;-72
2022/06/20 04:45:37;;;;;;;1.80;0.73;;;;;;;;;;20884032;28;20212;-71
2022/06/20 04:55:58;;;;;;;5.35;1.30;;;;;;;;;;20881275;28;20277;-70
2022/06/20 05:06:20;;;;;;;5.43;0.98;;;;;;;;;;20894596;28;20266;-71
2022/06/20 05:16:47;;;;;;;2.40;1.00;;;;;;;;;;20878927;28;20641;-72
2022/06/20 05:27:11;;;;;;;3.75;0.88;;;;;;;;;;20889387;28;20274;-72
2022/06/20 05:37:49;;;;;;;2.22;0.70;;;26.40;85.40;;;;;;20876642;28;20282;-71
2022/06/20 05:47:54;;;;;;;2.40;0.73;;;;;;;;;;20887602;28;20209;-73
2022/06/20 05:57:57;;;;;;;1.42;0.80;;;;;;;;;;20870968;28;20221;-70
2022/06/20 06:08:20;;;;;;;3.17;0.90;;;26.30;87.30;;;;;;20879787;28;20790;-71
2022/06/20 06:18:23;;;;;;;1.48;0.73;;;;;;;;;;20890478;28;20236;-71
2022/06/20 06:28:27;;;;;;;1.85;0.80;;;26.40;97.40;;;;;;20883626;28;20295;-71
2022/06/20 06:38:34;;;;;;;2.45;0.70;;;;;;;;;;20839956;28;20281;-71
2022/06/20 06:48:43;;;;;;;1.50;0.82;;;;;;;;;;20829089;28;20568;-71
2022/06/20 06:59:04;;;;;;;2.65;1.17;;;26.60;87.40;;;;;;20865681;28;20219;-70
2022/06/20 07:09:08;;;;;;;4.05;1.65;;;;;;;;;;20873823;28;20275;-71
2022/06/20 07:19:13;;;;;;;1.98;1.33;;;26.60;97.80;;;;;;20880684;28;20765;-72
2022/06/20 07:29:26;;;;;;;2.20;0.95;;;;;;;;;;20854600;28;20278;-71
2022/06/20 07:39:35;;;;;;;3.38;1.00;;;;;;;;;;20840808;28;20224;-73
2022/06/20 07:49:38;;;;;;;5.38;0.70;;;;;;;;;;20853225;28;20690;-75
2022/06/20 07:59:46;;;;;;;2.55;1.10;;;;;;;;;;20874218;28;20785;-73
2022/06/20 08:10:01;;;;;;;1.90;0.70;;;25.80;99.90;;;;;;20853456;28;20278;-73
2022/06/20 08:20:04;;;;;;;2.45;1.00;;;;;;;;;;20871901;28;20224;-76
2022/06/20 08:30:26;;;;;;;2.30;0.93;;;;;;;;;;20857244;28;20213;-74
2022/06/20 08:41:17;;;;;;;2.90;1.05;;;26.20;99.90;;;;;;20862895;28;20306;-75
2022/06/20 08:51:31;;;;;;;4.90;1.08;;;;;;;;;;20807489;28;20213;-73
2022/06/20 09:01:39;;;;;;;4.40;1.20;;;26.50;91.50;;;;;;20887944;28;20228;-76
2022/06/20 09:11:41;;;;;;;0.85;0.47;;;;;;;;;;20854105;28;20212;-73
2022/06/20 09:21:44;;;;;;;1.98;0.85;;;;;;;;;;20846432;28;20291;-73
2022/06/20 09:32:02;;;;;;;3.38;1.05;;;;;;;;;;20809599;28;20228;-73
2022/06/20 09:42:19;;;;;;;3.55;0.98;;;;;;;;;;20853376;28;20776;-73
2022/06/20 09:52:32;;;;;;;2.80;1.23;;;27.60;88.90;;;;;;20852100;28;20204;-73
2022/06/20 10:03:05;;;;;;;3.08;1.00;;;27.70;90.10;;;;;;20861534;28;20228;-70
2022/06/20 10:13:07;;;;;;;0.93;0.60;;;;;;;;;;20851274;28;20220;-70
2022/06/20 10:23:41;;;;;;;2.05;0.70;;;27.10;94.70;;;;;;20845517;28;20262;-70
2022/06/20 10:33:53;;;;;;;1.33;0.50;;;26.90;99.90;;;;;;20784644;28;20225;-69
2022/06/20 10:44:05;;;;;;;1.50;0.60;;;27.10;99.90;;;;;;20872297;28;20232;-69
2022/06/20 10:54:23;;;;;;;1.05;0.50;;;26.90;99.90;;;;;;20864709;28;20361;-69
2022/06/20 11:04:58;;;;;;;0.70;0.50;;;26.80;97.80;;;;;;20862084;28;20217;-72
2022/06/20 11:15:00;;;;;;;0.47;0.40;;;;;;;;;;20862403;28;20250;-70
2022/06/20 11:25:32;;;;;;;1.90;0.60;;;26.80;87.60;;;;;;20863525;28;20753;-70
2022/06/20 11:35:53;;;;;;;0.98;0.60;;;;;;;;;;20858245;28;20217;-70
2022/06/20 11:45:55;;;;;;;1.45;0.50;;;;;;;;;;20867145;28;20215;-69
2022/06/20 11:56:38;;;;;;;1.08;0.50;;;26.10;99.50;;;;;;20872936;28;20611;-69
2022/06/20 12:06:54;;;;;;;1.17;0.52;;;25.50;89.90;;;;;;20868879;28;20294;-72
2022/06/20 12:16:59;;;;;;;1.23;0.70;;;;;;;;;;20854778;28;20692;-72
2022/06/20 12:27:02;;;;;;;2.20;0.80;;;;;;;;;;20890923;28;20781;-72
2022/06/20 12:37:08;;;;;;;1.38;1.05;;;;;;;;;;20874033;28;20648;-72
2022/06/20 12:47:31;;;;;;;2.17;1.23;;;26.50;86.60;;;;;;20856401;28;20215;-72
2022/06/20 12:57:52;;;;;;;1.98;1.23;;;26.50;95.30;;;;;;20889431;28;20219;-72
2022/06/20 13:08:14;;;;;;;1.42;1.02;;;;;;;;;;20856502;28;20208;-72
2022/06/20 13:18:35;;;;;;;2.53;0.90;;;;;;;;;;20862010;28;20249;-73
2022/06/20 13:28:59;;;;;;;1.65;0.90;;;;;;;;;;20871070;28;20558;-73
2022/06/20 13:39:16;;;;;;;3.10;0.90;;;;;;;;;;20871278;28;20220;-72
2022/06/20 13:49:22;;;;;;;1.85;0.85;;;;;;;;;;20855588;28;20212;-72
2022/06/20 13:59:58;;;;;;;1.60;0.70;;;26.40;89.70;;;;;;20870542;28;20214;-72
2022/06/20 14:10:01;;;;;;;5.15;0.85;;;;;;;;;;20875747;28;20288;-72
2022/06/20 14:20:09;;;;;;;0.80;0.57;;;;;;;;;;20868020;28;20392;-72
2022/06/20 14:30:25;;;;;;;0.40;0.30;;;;;;;;;;20881179;28;20250;-72
2022/06/20 14:40:27;;;;;;;0.80;0.40;;;;;;;;;;20862293;28;20221;-73
2022/06/20 14:50:40;;;;;;;0.50;0.28;;;26.20;93.60;;;;;;20890231;28;20267;-72
2022/06/20 15:00:52;;;;;;;0.63;0.40;;;;;;;;;;20859683;28;20242;-73
2022/06/20 15:11:04;;;;;;;0.88;0.40;;;26.80;90.90;;;;;;20822019;28;20635;-72
2022/06/20 15:21:12;;;;;;;0.70;0.50;;;;;;;;;;20895724;28;20628;-73
2022/06/20 15:31:15;;;;;;;0.60;0.30;;;;;;;;;;20878405;28;20612;-73
2022/06/20 15:41:20;;;;;;;0.60;0.30;;;;;;;;;;20876433;22;20241;-74
2022/06/20 15:52:06;;;;;;;0.20;0.20;;;;;;;;;;20580892;28;20229;-75
2022/06/20 16:02:37;;;;;;;0.20;0.20;;;25.60;91.00;;;;;;20963073;28;20295;-74
2022/06/20 16:12:48;;;;;;;0.80;0.38;;;25.70;92.60;;;;;;20979366;28;20548;-74
2022/06/20 16:22:52;;;;;;;0.10;0.10;;;;;;;;;;20988345;28;20524;-75
2022/06/20 16:32:59;;;;;;;0.10;0.10;;;;;;;;;;20964027;28;20274;-75
2022/06/20 16:43:08;;;;;;;1.27;0.30;;;25.20;84.10;;;;;;20982673;28;20233;-75
2022/06/20 16:53:55;;;;;;;0.55;0.20;;;25.00;86.80;;;;;;20956801;28;20208;-73
2022/06/20 17:04:00;;;;;;;0.30;0.30;;;;;;;;;;20966371;28;20270;-72
2022/06/20 17:14:14;;;;;;;0.90;0.28;;;;;;;;;;20955760;28;20603;-73
2022/06/20 17:24:19;;;;;;;0.57;0.38;;;;;;;;;;20970655;28;20302;-72
2022/06/20 17:34:27;;;;;;;0.55;0.28;;;24.30;86.70;;;;;;20977159;28;20785;-73
2022/06/20 17:44:37;;;;;;;0.47;0.22;;;;;;;;;;20968835;28;20227;-73
2022/06/20 17:55:11;;;;;;;0.95;0.40;;;24.10;88.90;;;;;;20976337;28;20560;-73
2022/06/20 18:05:13;;;;;;;0.40;0.32;;;;;;;;;;20953057;28;20572;-73
2022/06/20 18:15:16;;;;;;;0.73;0.38;;;;;;;;;;20949530;28;20216;-73
2022/06/20 18:25:22;;;;;;;0.65;0.28;;;;;;;;;;20944897;28;20280;-73
2022/06/20 18:35:24;;;;;;;0.95;0.50;;;;;;;;;;20946683;28;20208;-74
2022/06/20 18:45:28;;;;;;;1.05;0.40;;;;;;;;;;20966197;28;20631;-74
2022/06/20 18:55:43;;;;;;;2.72;0.38;;;;;;;;;;20958849;28;20219;-73
2022/06/20 19:05:59;;;;;;;1.52;0.40;;;23.50;91.30;;;;;;20982056;28;20211;-74
2022/06/20 19:16:19;;;;;;;0.73;0.30;;;23.50;80.90;;;;;;20973557;28;20215;-73
2022/06/20 19:26:24;;;;;;;0.55;0.40;;;;;;;;;;20981318;28;20209;-73
2022/06/20 19:36:35;;;;;;;1.05;0.57;;;;;;;;;;20963189;28;20763;-73
2022/06/20 19:46:37;;;;;;;2.53;0.70;;;;;;;;;;20958309;28;20230;-73
2022/06/20 19:57:16;;;;;;;0.45;0.35;;;;;;;;;;20973058;28;20260;-73
2022/06/20 20:07:27;;;;;;;1.27;0.60;;;;;;;;;;20905352;28;20228;-72
2022/06/20 20:17:32;;;;;;;1.15;0.57;;;22.90;89.10;;;;;;20982503;28;20229;-71
2022/06/20 20:27:49;;;;;;;1.25;0.60;;;22.80;93.80;;;;;;20980352;28;20228;-72
2022/06/20 20:38:27;;;;;;;1.77;0.68;;;22.70;85.00;;;;;;20982967;28;20695;-71
2022/06/20 20:48:48;;;;;;;1.58;0.70;;;;;;;;;;20978667;28;20206;-71
2022/06/20 20:58:55;;;;;;;1.83;0.77;;;;;;;;;;20978756;28;20216;-70
2022/06/20 21:09:01;;;;;;;0.82;0.50;;;;;;;;;;20978567;28;20275;-70
2022/06/20 21:19:33;;;;;;;4.03;0.60;;;22.00;91.10;;;;;;20973148;28;20222;-72
2022/06/20 21:29:36;;;;;;;0.90;0.65;;;;;;;;;;20941566;28;20290;-71
2022/06/20 21:39:42;;;;;;;1.00;0.65;;;;;;;;;;20978079;28;20686;-71
2022/06/20 21:49:45;;;;;;;1.33;0.50;;;;;;;;;;21075808;22;20295;-71
2022/06/20 21:59:54;;;;;;;0.77;0.60;;;21.40;94.10;;;;;;21018734;28;20248;-72
2022/06/20 22:09:58;;;;;;;0.93;0.53;;;21.30;92.50;;;;;;21012309;28;20213;-72
2022/06/20 22:20:00;;;;;;;1.63;0.60;;;;;;;;;;21032333;28;20277;-72
2022/06/20 22:30:24;;;;;;;1.60;0.70;;;21.20;99.90;;;;;;21066724;28;20196;-72
2022/06/20 22:40:28;;;;;;;1.60;0.63;;;;;;;;;;21049251;28;20213;-71
2022/06/20 22:50:38;;;;;;;1.93;0.63;;;;;;;;;;21034892;28;20301;-72
2022/06/20 23:00:41;;;;;;;0.90;0.60;;;;;;;;;;20978975;28;20272;-72
2022/06/20 23:10:43;;;;;;;1.87;0.70;;;;;;;;;;20963927;28;20243;-72
2022/06/20 23:20:45;;;;;;;1.70;0.77;;;;;;;;;;21007171;28;20286;-72
2022/06/20 23:30:47;;;;;;;2.10;0.70;;;;;;;;;;21043376;28;20221;-73
2022/06/20 23:40:51;;;;;;;2.07;0.63;;;;;;;;;;21028595;28;20239;-72
2022/06/20 23:50:53;;;;;;;1.23;0.70;;;;;;;;;;21026470;28;20561;-72
